sensor_id;sensor_type;location;lat;lon;timestamp;P1;durP1;ratioP1;P2;durP2;ratioP2
44508;SDS011;30214;52.246;14.408;2023-04-08T00:01:05;17.55;;;12.27;;
44508;SDS011;30214;52.246;14.408;2023-04-08T00:03:33;20.85;;;12.90;;
44508;SDS011;30214;52.246;14.408;2023-04-08T00:06:00;19.58;;;13.27;;
44508;SDS011;30214;52.246;14.408;2023-04-08T00:08:28;21.77;;;14.50;;
44508;SDS011;30214;52.246;14.408;2023-04-08T00:10:55;19.50;;;13.88;;
44508;SDS011;30214;52.246;14.408;2023-04-08T00:13:23;20.42;;;13.95;;
44508;SDS011;30214;52.246;14.408;2023-04-08T00:15:50;21.98;;;13.75;;
44508;SDS011;30214;52.246;14.408;2023-04-08T00:18:17;20.02;;;13.35;;
44508;SDS011;30214;52.246;14.408;2023-04-08T00:20:44;19.73;;;14.10;;
44508;SDS011;30214;52.246;14.408;2023-04-08T00:23:11;19.75;;;14.88;;
44508;SDS011;30214;52.246;14.408;2023-04-08T00:25:40;19.35;;;14.23;;
44508;SDS011;30214;52.246;14.408;2023-04-08T00:28:07;20.65;;;15.00;;
44508;SDS011;30214;52.246;14.408;2023-04-08T00:30:34;21.83;;;15.38;;
44508;SDS011;30214;52.246;14.408;2023-04-08T00:33:01;23.60;;;15.85;;
44508;SDS011;30214;52.246;14.408;2023-04-08T00:35:28;23.80;;;16.48;;
44508;SDS011;30214;52.246;14.408;2023-04-08T00:37:55;25.55;;;17.58;;
44508;SDS011;30214;52.246;14.408;2023-04-08T00:40:22;24.42;;;16.60;;
44508;SDS011;30214;52.246;14.408;2023-04-08T00:42:51;28.00;;;17.98;;
44508;SDS011;30214;52.246;14.408;2023-04-08T00:45:18;27.92;;;18.33;;
44508;SDS011;30214;52.246;14.408;2023-04-08T00:47:45;26.42;;;18.30;;
44508;SDS011;30214;52.246;14.408;2023-04-08T00:50:16;27.40;;;18.83;;
44508;SDS011;30214;52.246;14.408;2023-04-08T00:52:44;30.08;;;18.30;;
44508;SDS011;30214;52.246;14.408;2023-04-08T00:55:11;29.17;;;19.85;;
44508;SDS011;30214;52.246;14.408;2023-04-08T00:57:38;29.77;;;18.58;;
44508;SDS011;30214;52.246;14.408;2023-04-08T01:00:08;28.83;;;19.75;;
44508;SDS011;30214;52.246;14.408;2023-04-08T01:02:38;27.63;;;18.92;;
44508;SDS011;30214;52.246;14.408;2023-04-08T01:05:12;28.75;;;18.88;;
44508;SDS011;30214;52.246;14.408;2023-04-08T01:07:49;31.27;;;18.98;;
44508;SDS011;30214;52.246;14.408;2023-04-08T01:10:20;30.52;;;19.23;;
44508;SDS011;30214;52.246;14.408;2023-04-08T01:12:51;33.08;;;19.63;;
44508;SDS011;30214;52.246;14.408;2023-04-08T01:15:23;29.27;;;19.75;;
44508;SDS011;30214;52.246;14.408;2023-04-08T01:17:54;30.63;;;19.10;;
44508;SDS011;30214;52.246;14.408;2023-04-08T01:20:22;32.50;;;20.25;;
44508;SDS011;30214;52.246;14.408;2023-04-08T01:22:59;31.08;;;20.02;;
44508;SDS011;30214;52.246;14.408;2023-04-08T01:25:34;32.70;;;20.45;;
44508;SDS011;30214;52.246;14.408;2023-04-08T01:28:05;29.67;;;20.33;;
44508;SDS011;30214;52.246;14.408;2023-04-08T01:30:36;36.08;;;22.02;;
44508;SDS011;30214;52.246;14.408;2023-04-08T01:33:04;34.13;;;21.80;;
44508;SDS011;30214;52.246;14.408;2023-04-08T01:35:32;36.90;;;21.38;;
44508;SDS011;30214;52.246;14.408;2023-04-08T01:38:00;35.10;;;22.13;;
44508;SDS011;30214;52.246;14.408;2023-04-08T01:40:29;42.03;;;22.45;;
44508;SDS011;30214;52.246;14.408;2023-04-08T01:42:57;33.38;;;21.73;;
44508;SDS011;30214;52.246;14.408;2023-04-08T01:45:26;38.75;;;22.77;;
44508;SDS011;30214;52.246;14.408;2023-04-08T01:47:55;38.50;;;22.92;;
44508;SDS011;30214;52.246;14.408;2023-04-08T01:50:24;37.92;;;22.10;;
44508;SDS011;30214;52.246;14.408;2023-04-08T01:52:53;35.78;;;21.80;;
44508;SDS011;30214;52.246;14.408;2023-04-08T01:55:24;41.33;;;22.63;;
44508;SDS011;30214;52.246;14.408;2023-04-08T01:57:53;40.97;;;23.92;;
44508;SDS011;30214;52.246;14.408;2023-04-08T02:00:27;37.70;;;22.65;;
44508;SDS011;30214;52.246;14.408;2023-04-08T02:02:56;37.13;;;23.38;;
44508;SDS011;30214;52.246;14.408;2023-04-08T02:05:27;42.97;;;23.40;;
44508;SDS011;30214;52.246;14.408;2023-04-08T02:07:58;42.15;;;23.92;;
44508;SDS011;30214;52.246;14.408;2023-04-08T02:10:26;39.58;;;23.58;;
44508;SDS011;30214;52.246;14.408;2023-04-08T02:12:53;37.78;;;23.27;;
44508;SDS011;30214;52.246;14.408;2023-04-08T02:15:22;40.22;;;23.83;;
44508;SDS011;30214;52.246;14.408;2023-04-08T02:17:53;41.13;;;24.13;;
44508;SDS011;30214;52.246;14.408;2023-04-08T02:20:22;43.92;;;25.77;;
44508;SDS011;30214;52.246;14.408;2023-04-08T02:23:02;39.00;;;24.60;;
44508;SDS011;30214;52.246;14.408;2023-04-08T02:25:36;44.17;;;24.60;;
44508;SDS011;30214;52.246;14.408;2023-04-08T02:28:06;46.75;;;25.73;;
44508;SDS011;30214;52.246;14.408;2023-04-08T02:30:37;44.17;;;25.30;;
44508;SDS011;30214;52.246;14.408;2023-04-08T02:33:10;44.92;;;26.60;;
44508;SDS011;30214;52.246;14.408;2023-04-08T02:35:39;40.72;;;25.23;;
44508;SDS011;30214;52.246;14.408;2023-04-08T02:38:07;44.90;;;26.13;;
44508;SDS011;30214;52.246;14.408;2023-04-08T02:40:35;44.00;;;26.40;;
44508;SDS011;30214;52.246;14.408;2023-04-08T02:43:02;40.33;;;25.23;;
44508;SDS011;30214;52.246;14.408;2023-04-08T02:45:30;46.47;;;27.35;;
44508;SDS011;30214;52.246;14.408;2023-04-08T02:47:59;43.72;;;27.38;;
44508;SDS011;30214;52.246;14.408;2023-04-08T02:50:28;47.40;;;28.40;;
44508;SDS011;30214;52.246;14.408;2023-04-08T02:52:55;46.55;;;28.17;;
44508;SDS011;30214;52.246;14.408;2023-04-08T02:55:22;49.75;;;28.42;;
44508;SDS011;30214;52.246;14.408;2023-04-08T02:57:49;45.55;;;26.60;;
44508;SDS011;30214;52.246;14.408;2023-04-08T03:00:16;48.65;;;27.15;;
44508;SDS011;30214;52.246;14.408;2023-04-08T03:02:44;49.08;;;27.50;;
44508;SDS011;30214;52.246;14.408;2023-04-08T03:05:11;41.80;;;25.50;;
44508;SDS011;30214;52.246;14.408;2023-04-08T03:07:39;48.25;;;27.15;;
44508;SDS011;30214;52.246;14.408;2023-04-08T03:10:07;45.88;;;27.65;;
44508;SDS011;30214;52.246;14.408;2023-04-08T03:12:34;45.25;;;27.13;;
44508;SDS011;30214;52.246;14.408;2023-04-08T03:15:02;49.42;;;28.02;;
44508;SDS011;30214;52.246;14.408;2023-04-08T03:17:30;49.60;;;29.33;;
44508;SDS011;30214;52.246;14.408;2023-04-08T03:19:58;46.25;;;27.40;;
44508;SDS011;30214;52.246;14.408;2023-04-08T03:22:25;48.40;;;27.88;;
44508;SDS011;30214;52.246;14.408;2023-04-08T03:24:54;46.28;;;27.20;;
44508;SDS011;30214;52.246;14.408;2023-04-08T03:27:21;45.63;;;27.42;;
44508;SDS011;30214;52.246;14.408;2023-04-08T03:29:49;47.60;;;27.38;;
44508;SDS011;30214;52.246;14.408;2023-04-08T03:32:17;52.10;;;28.42;;
44508;SDS011;30214;52.246;14.408;2023-04-08T03:34:44;50.25;;;29.00;;
44508;SDS011;30214;52.246;14.408;2023-04-08T03:37:11;55.00;;;28.40;;
44508;SDS011;30214;52.246;14.408;2023-04-08T03:39:38;54.78;;;28.13;;
44508;SDS011;30214;52.246;14.408;2023-04-08T03:42:07;50.20;;;29.30;;
44508;SDS011;30214;52.246;14.408;2023-04-08T03:44:34;53.47;;;29.33;;
44508;SDS011;30214;52.246;14.408;2023-04-08T03:47:01;52.63;;;29.80;;
44508;SDS011;30214;52.246;14.408;2023-04-08T03:49:28;54.22;;;30.88;;
44508;SDS011;30214;52.246;14.408;2023-04-08T03:51:55;53.47;;;29.55;;
44508;SDS011;30214;52.246;14.408;2023-04-08T03:54:22;54.83;;;30.00;;
44508;SDS011;30214;52.246;14.408;2023-04-08T03:56:50;50.20;;;30.30;;
44508;SDS011;30214;52.246;14.408;2023-04-08T03:59:18;52.17;;;29.52;;
44508;SDS011;30214;52.246;14.408;2023-04-08T04:01:45;49.47;;;28.00;;
44508;SDS011;30214;52.246;14.408;2023-04-08T04:04:12;49.28;;;28.38;;
44508;SDS011;30214;52.246;14.408;2023-04-08T04:06:40;50.15;;;27.40;;
44508;SDS011;30214;52.246;14.408;2023-04-08T04:09:07;47.75;;;28.55;;
44508;SDS011;30214;52.246;14.408;2023-04-08T04:11:35;51.30;;;30.25;;
44508;SDS011;30214;52.246;14.408;2023-04-08T04:14:02;47.35;;;29.20;;
44508;SDS011;30214;52.246;14.408;2023-04-08T04:16:31;54.67;;;29.23;;
44508;SDS011;30214;52.246;14.408;2023-04-08T04:18:58;49.67;;;29.83;;
44508;SDS011;30214;52.246;14.408;2023-04-08T04:21:25;55.60;;;32.83;;
44508;SDS011;30214;52.246;14.408;2023-04-08T04:23:52;58.47;;;34.85;;
44508;SDS011;30214;52.246;14.408;2023-04-08T04:26:19;64.82;;;36.50;;
44508;SDS011;30214;52.246;14.408;2023-04-08T04:28:46;59.95;;;35.75;;
44508;SDS011;30214;52.246;14.408;2023-04-08T04:31:17;62.67;;;33.47;;
44508;SDS011;30214;52.246;14.408;2023-04-08T04:33:47;50.45;;;31.05;;
44508;SDS011;30214;52.246;14.408;2023-04-08T04:36:14;47.25;;;30.17;;
44508;SDS011;30214;52.246;14.408;2023-04-08T04:38:41;58.83;;;33.53;;
44508;SDS011;30214;52.246;14.408;2023-04-08T04:41:08;62.17;;;33.25;;
44508;SDS011;30214;52.246;14.408;2023-04-08T04:43:36;52.10;;;32.78;;
44508;SDS011;30214;52.246;14.408;2023-04-08T04:46:03;52.95;;;31.65;;
44508;SDS011;30214;52.246;14.408;2023-04-08T04:48:32;51.42;;;29.63;;
44508;SDS011;30214;52.246;14.408;2023-04-08T04:51:01;50.50;;;31.17;;
44508;SDS011;30214;52.246;14.408;2023-04-08T04:53:29;48.95;;;30.35;;
44508;SDS011;30214;52.246;14.408;2023-04-08T04:55:56;45.67;;;29.00;;
44508;SDS011;30214;52.246;14.408;2023-04-08T04:58:25;46.00;;;29.55;;
44508;SDS011;30214;52.246;14.408;2023-04-08T05:00:52;51.20;;;29.20;;
44508;SDS011;30214;52.246;14.408;2023-04-08T05:03:19;52.45;;;29.33;;
44508;SDS011;30214;52.246;14.408;2023-04-08T05:05:49;47.30;;;29.00;;
44508;SDS011;30214;52.246;14.408;2023-04-08T05:08:18;50.00;;;28.73;;
44508;SDS011;30214;52.246;14.408;2023-04-08T05:10:46;50.05;;;30.05;;
44508;SDS011;30214;52.246;14.408;2023-04-08T05:13:14;46.25;;;29.58;;
44508;SDS011;30214;52.246;14.408;2023-04-08T05:15:41;51.08;;;30.85;;
44508;SDS011;30214;52.246;14.408;2023-04-08T05:18:09;48.72;;;28.40;;
44508;SDS011;30214;52.246;14.408;2023-04-08T05:20:36;49.22;;;29.20;;
44508;SDS011;30214;52.246;14.408;2023-04-08T05:23:04;45.15;;;28.52;;
44508;SDS011;30214;52.246;14.408;2023-04-08T05:25:33;44.38;;;28.35;;
44508;SDS011;30214;52.246;14.408;2023-04-08T05:28:00;43.58;;;27.35;;
44508;SDS011;30214;52.246;14.408;2023-04-08T05:30:27;41.00;;;27.65;;
44508;SDS011;30214;52.246;14.408;2023-04-08T05:32:55;42.28;;;27.67;;
44508;SDS011;30214;52.246;14.408;2023-04-08T05:35:22;43.60;;;27.83;;
44508;SDS011;30214;52.246;14.408;2023-04-08T05:37:49;42.97;;;26.50;;
44508;SDS011;30214;52.246;14.408;2023-04-08T05:40:16;39.40;;;26.88;;
44508;SDS011;30214;52.246;14.408;2023-04-08T05:42:44;39.88;;;26.50;;
44508;SDS011;30214;52.246;14.408;2023-04-08T05:45:11;39.75;;;25.02;;
44508;SDS011;30214;52.246;14.408;2023-04-08T05:47:38;35.85;;;24.85;;
44508;SDS011;30214;52.246;14.408;2023-04-08T05:50:06;36.28;;;24.85;;
44508;SDS011;30214;52.246;14.408;2023-04-08T05:52:35;36.35;;;23.90;;
44508;SDS011;30214;52.246;14.408;2023-04-08T05:55:03;35.38;;;24.92;;
44508;SDS011;30214;52.246;14.408;2023-04-08T05:57:32;36.80;;;23.52;;
44508;SDS011;30214;52.246;14.408;2023-04-08T06:00:00;35.22;;;23.02;;
44508;SDS011;30214;52.246;14.408;2023-04-08T06:02:31;34.15;;;23.50;;
44508;SDS011;30214;52.246;14.408;2023-04-08T06:04:58;36.17;;;23.85;;
44508;SDS011;30214;52.246;14.408;2023-04-08T06:07:25;33.88;;;22.83;;
44508;SDS011;30214;52.246;14.408;2023-04-08T06:09:52;35.72;;;22.38;;
44508;SDS011;30214;52.246;14.408;2023-04-08T06:12:19;29.33;;;22.08;;
44508;SDS011;30214;52.246;14.408;2023-04-08T06:14:46;33.13;;;22.25;;
44508;SDS011;30214;52.246;14.408;2023-04-08T06:17:15;33.30;;;22.25;;
44508;SDS011;30214;52.246;14.408;2023-04-08T06:19:42;28.17;;;20.88;;
44508;SDS011;30214;52.246;14.408;2023-04-08T06:22:09;29.05;;;20.83;;
44508;SDS011;30214;52.246;14.408;2023-04-08T06:24:36;28.33;;;20.33;;
44508;SDS011;30214;52.246;14.408;2023-04-08T06:27:04;26.88;;;18.50;;
44508;SDS011;30214;52.246;14.408;2023-04-08T06:29:31;28.45;;;18.70;;
44508;SDS011;30214;52.246;14.408;2023-04-08T06:31:58;23.25;;;17.27;;
44508;SDS011;30214;52.246;14.408;2023-04-08T06:34:27;24.65;;;18.10;;
44508;SDS011;30214;52.246;14.408;2023-04-08T06:36:54;26.05;;;17.05;;
44508;SDS011;30214;52.246;14.408;2023-04-08T06:39:21;19.60;;;15.27;;
44508;SDS011;30214;52.246;14.408;2023-04-08T06:41:48;19.85;;;14.85;;
44508;SDS011;30214;52.246;14.408;2023-04-08T06:44:33;21.02;;;14.35;;
44508;SDS011;30214;52.246;14.408;2023-04-08T06:47:00;19.55;;;14.15;;
44508;SDS011;30214;52.246;14.408;2023-04-08T06:49:30;18.73;;;13.73;;
44508;SDS011;30214;52.246;14.408;2023-04-08T06:51:57;18.77;;;14.00;;
44508;SDS011;30214;52.246;14.408;2023-04-08T06:54:24;19.33;;;13.57;;
44508;SDS011;30214;52.246;14.408;2023-04-08T06:56:51;18.27;;;13.45;;
44508;SDS011;30214;52.246;14.408;2023-04-08T06:59:18;17.92;;;13.77;;
44508;SDS011;30214;52.246;14.408;2023-04-08T07:01:45;18.52;;;14.10;;
44508;SDS011;30214;52.246;14.408;2023-04-08T07:04:13;18.05;;;13.63;;
44508;SDS011;30214;52.246;14.408;2023-04-08T07:06:41;18.50;;;13.50;;
44508;SDS011;30214;52.246;14.408;2023-04-08T07:09:08;20.27;;;14.02;;
44508;SDS011;30214;52.246;14.408;2023-04-08T07:11:36;19.60;;;13.95;;
44508;SDS011;30214;52.246;14.408;2023-04-08T07:14:03;18.35;;;14.13;;
44508;SDS011;30214;52.246;14.408;2023-04-08T07:16:30;20.02;;;14.20;;
44508;SDS011;30214;52.246;14.408;2023-04-08T07:19:00;21.52;;;15.20;;
44508;SDS011;30214;52.246;14.408;2023-04-08T07:21:27;18.15;;;13.68;;
44508;SDS011;30214;52.246;14.408;2023-04-08T07:23:56;19.23;;;14.00;;
44508;SDS011;30214;52.246;14.408;2023-04-08T07:26:24;18.60;;;14.43;;
44508;SDS011;30214;52.246;14.408;2023-04-08T07:28:52;21.65;;;15.43;;
44508;SDS011;30214;52.246;14.408;2023-04-08T07:31:19;19.33;;;13.60;;
44508;SDS011;30214;52.246;14.408;2023-04-08T07:33:46;21.52;;;13.65;;
44508;SDS011;30214;52.246;14.408;2023-04-08T07:36:14;20.27;;;13.90;;
44508;SDS011;30214;52.246;14.408;2023-04-08T07:38:42;19.42;;;14.35;;
44508;SDS011;30214;52.246;14.408;2023-04-08T07:41:11;19.55;;;13.52;;
44508;SDS011;30214;52.246;14.408;2023-04-08T07:43:38;21.15;;;14.65;;
44508;SDS011;30214;52.246;14.408;2023-04-08T07:46:05;19.30;;;13.35;;
44508;SDS011;30214;52.246;14.408;2023-04-08T07:48:33;20.17;;;14.48;;
44508;SDS011;30214;52.246;14.408;2023-04-08T07:51:04;18.45;;;13.55;;
44508;SDS011;30214;52.246;14.408;2023-04-08T07:53:32;19.85;;;14.50;;
44508;SDS011;30214;52.246;14.408;2023-04-08T07:55:59;18.45;;;14.07;;
44508;SDS011;30214;52.246;14.408;2023-04-08T07:58:29;20.40;;;13.52;;
44508;SDS011;30214;52.246;14.408;2023-04-08T08:00:57;17.95;;;13.70;;
44508;SDS011;30214;52.246;14.408;2023-04-08T08:03:24;17.90;;;13.07;;
44508;SDS011;30214;52.246;14.408;2023-04-08T08:05:51;17.55;;;13.27;;
44508;SDS011;30214;52.246;14.408;2023-04-08T08:08:19;18.08;;;13.50;;
44508;SDS011;30214;52.246;14.408;2023-04-08T08:10:46;19.02;;;14.10;;
44508;SDS011;30214;52.246;14.408;2023-04-08T08:13:13;18.30;;;14.23;;
44508;SDS011;30214;52.246;14.408;2023-04-08T08:15:47;17.83;;;13.25;;
44508;SDS011;30214;52.246;14.408;2023-04-08T08:18:18;17.30;;;13.07;;
44508;SDS011;30214;52.246;14.408;2023-04-08T08:20:46;18.35;;;14.25;;
44508;SDS011;30214;52.246;14.408;2023-04-08T08:23:13;21.20;;;14.25;;
44508;SDS011;30214;52.246;14.408;2023-04-08T08:25:40;21.48;;;14.63;;
44508;SDS011;30214;52.246;14.408;2023-04-08T08:28:07;22.95;;;15.00;;
44508;SDS011;30214;52.246;14.408;2023-04-08T08:30:35;20.98;;;15.52;;
44508;SDS011;30214;52.246;14.408;2023-04-08T08:33:03;21.50;;;15.05;;
44508;SDS011;30214;52.246;14.408;2023-04-08T08:35:31;20.23;;;15.52;;
44508;SDS011;30214;52.246;14.408;2023-04-08T08:37:58;22.02;;;16.20;;
44508;SDS011;30214;52.246;14.408;2023-04-08T08:40:25;19.95;;;14.77;;
44508;SDS011;30214;52.246;14.408;2023-04-08T08:42:53;21.20;;;14.88;;
44508;SDS011;30214;52.246;14.408;2023-04-08T08:45:23;20.15;;;15.20;;
44508;SDS011;30214;52.246;14.408;2023-04-08T08:47:50;22.75;;;15.60;;
44508;SDS011;30214;52.246;14.408;2023-04-08T08:50:19;20.33;;;14.38;;
44508;SDS011;30214;52.246;14.408;2023-04-08T08:52:47;19.27;;;14.77;;
44508;SDS011;30214;52.246;14.408;2023-04-08T08:55:16;17.83;;;13.25;;
44508;SDS011;30214;52.246;14.408;2023-04-08T08:57:44;18.90;;;15.27;;
44508;SDS011;30214;52.246;14.408;2023-04-08T09:00:13;20.83;;;14.63;;
44508;SDS011;30214;52.246;14.408;2023-04-08T09:02:41;24.25;;;15.38;;
44508;SDS011;30214;52.246;14.408;2023-04-08T09:05:08;19.67;;;15.10;;
44508;SDS011;30214;52.246;14.408;2023-04-08T09:07:37;21.30;;;15.30;;
44508;SDS011;30214;52.246;14.408;2023-04-08T09:10:06;21.75;;;15.38;;
44508;SDS011;30214;52.246;14.408;2023-04-08T09:12:34;20.30;;;14.60;;
44508;SDS011;30214;52.246;14.408;2023-04-08T09:15:21;18.13;;;13.52;;
44508;SDS011;30214;52.246;14.408;2023-04-08T09:17:48;20.60;;;15.50;;
44508;SDS011;30214;52.246;14.408;2023-04-08T09:20:15;21.45;;;16.27;;
44508;SDS011;30214;52.246;14.408;2023-04-08T09:22:58;20.95;;;14.82;;
44508;SDS011;30214;52.246;14.408;2023-04-08T09:25:27;18.58;;;13.70;;
44508;SDS011;30214;52.246;14.408;2023-04-08T09:27:56;16.95;;;13.48;;
44508;SDS011;30214;52.246;14.408;2023-04-08T09:30:24;16.55;;;13.07;;
44508;SDS011;30214;52.246;14.408;2023-04-08T09:32:53;19.83;;;14.38;;
44508;SDS011;30214;52.246;14.408;2023-04-08T09:35:25;17.45;;;13.52;;
44508;SDS011;30214;52.246;14.408;2023-04-08T09:37:53;18.25;;;13.82;;
44508;SDS011;30214;52.246;14.408;2023-04-08T09:40:21;21.50;;;14.35;;
44508;SDS011;30214;52.246;14.408;2023-04-08T09:42:50;19.67;;;14.57;;
44508;SDS011;30214;52.246;14.408;2023-04-08T09:45:20;18.88;;;13.43;;
44508;SDS011;30214;52.246;14.408;2023-04-08T09:47:55;17.52;;;13.45;;
44508;SDS011;30214;52.246;14.408;2023-04-08T09:50:30;16.38;;;12.15;;
44508;SDS011;30214;52.246;14.408;2023-04-08T09:53:00;17.10;;;12.25;;
44508;SDS011;30214;52.246;14.408;2023-04-08T09:55:36;16.40;;;11.98;;
44508;SDS011;30214;52.246;14.408;2023-04-08T09:58:06;15.45;;;12.02;;
44508;SDS011;30214;52.246;14.408;2023-04-08T10:00:43;14.52;;;10.63;;
44508;SDS011;30214;52.246;14.408;2023-04-08T10:03:17;13.98;;;10.18;;
44508;SDS011;30214;52.246;14.408;2023-04-08T10:05:53;12.80;;;10.38;;
44508;SDS011;30214;52.246;14.408;2023-04-08T10:08:21;14.80;;;11.13;;
44508;SDS011;30214;52.246;14.408;2023-04-08T10:10:51;14.80;;;11.45;;
44508;SDS011;30214;52.246;14.408;2023-04-08T10:13:20;14.57;;;10.23;;
44508;SDS011;30214;52.246;14.408;2023-04-08T10:15:48;15.13;;;11.57;;
44508;SDS011;30214;52.246;14.408;2023-04-08T10:18:30;13.70;;;10.73;;
44508;SDS011;30214;52.246;14.408;2023-04-08T10:20:58;14.37;;;10.70;;
44508;SDS011;30214;52.246;14.408;2023-04-08T10:26:31;15.93;;;11.50;;
44508;SDS011;30214;52.246;14.408;2023-04-08T10:32:26;16.33;;;11.80;;
44508;SDS011;30214;52.246;14.408;2023-04-08T10:34:56;14.30;;;11.07;;
44508;SDS011;30214;52.246;14.408;2023-04-08T10:37:28;14.70;;;11.13;;
44508;SDS011;30214;52.246;14.408;2023-04-08T10:39:57;13.90;;;10.90;;
44508;SDS011;30214;52.246;14.408;2023-04-08T10:42:31;16.02;;;10.98;;
44508;SDS011;30214;52.246;14.408;2023-04-08T10:45:06;13.93;;;10.75;;
44508;SDS011;30214;52.246;14.408;2023-04-08T10:47:36;13.32;;;10.65;;
44508;SDS011;30214;52.246;14.408;2023-04-08T10:50:11;16.08;;;11.10;;
44508;SDS011;30214;52.246;14.408;2023-04-08T10:52:45;14.70;;;10.88;;
44508;SDS011;30214;52.246;14.408;2023-04-08T10:55:13;16.20;;;11.30;;
44508;SDS011;30214;52.246;14.408;2023-04-08T10:57:42;13.40;;;9.75;;
44508;SDS011;30214;52.246;14.408;2023-04-08T11:00:10;14.93;;;11.15;;
44508;SDS011;30214;52.246;14.408;2023-04-08T11:05:13;13.38;;;10.00;;
44508;SDS011;30214;52.246;14.408;2023-04-08T11:07:43;14.10;;;10.40;;
44508;SDS011;30214;52.246;14.408;2023-04-08T11:10:11;15.73;;;10.30;;
44508;SDS011;30214;52.246;14.408;2023-04-08T11:12:41;16.40;;;11.05;;
44508;SDS011;30214;52.246;14.408;2023-04-08T11:15:11;16.23;;;10.75;;
44508;SDS011;30214;52.246;14.408;2023-04-08T11:17:41;16.25;;;11.75;;
44508;SDS011;30214;52.246;14.408;2023-04-08T11:20:09;16.15;;;11.70;;
44508;SDS011;30214;52.246;14.408;2023-04-08T11:22:38;15.75;;;11.55;;
44508;SDS011;30214;52.246;14.408;2023-04-08T11:25:07;15.07;;;11.65;;
44508;SDS011;30214;52.246;14.408;2023-04-08T11:27:37;18.63;;;12.68;;
44508;SDS011;30214;52.246;14.408;2023-04-08T11:30:08;17.73;;;12.43;;
44508;SDS011;30214;52.246;14.408;2023-04-08T11:32:37;16.13;;;12.35;;
44508;SDS011;30214;52.246;14.408;2023-04-08T11:35:05;15.10;;;11.68;;
44508;SDS011;30214;52.246;14.408;2023-04-08T11:37:37;15.60;;;12.75;;
44508;SDS011;30214;52.246;14.408;2023-04-08T11:40:06;15.18;;;11.50;;
44508;SDS011;30214;52.246;14.408;2023-04-08T11:42:38;18.08;;;12.10;;
44508;SDS011;30214;52.246;14.408;2023-04-08T11:45:11;17.25;;;12.77;;
44508;SDS011;30214;52.246;14.408;2023-04-08T11:47:42;15.38;;;12.15;;
44508;SDS011;30214;52.246;14.408;2023-04-08T11:50:23;16.20;;;12.15;;
44508;SDS011;30214;52.246;14.408;2023-04-08T11:52:54;17.73;;;12.65;;
44508;SDS011;30214;52.246;14.408;2023-04-08T11:55:22;17.15;;;11.55;;
44508;SDS011;30214;52.246;14.408;2023-04-08T11:57:53;16.48;;;12.20;;
44508;SDS011;30214;52.246;14.408;2023-04-08T12:00:24;17.65;;;13.43;;
44508;SDS011;30214;52.246;14.408;2023-04-08T12:02:52;17.38;;;12.50;;
44508;SDS011;30214;52.246;14.408;2023-04-08T12:05:21;19.40;;;12.27;;
44508;SDS011;30214;52.246;14.408;2023-04-08T12:07:50;16.67;;;11.77;;
44508;SDS011;30214;52.246;14.408;2023-04-08T12:10:19;16.90;;;12.20;;
44508;SDS011;30214;52.246;14.408;2023-04-08T12:12:49;17.02;;;12.38;;
44508;SDS011;30214;52.246;14.408;2023-04-08T12:15:19;13.88;;;11.55;;
44508;SDS011;30214;52.246;14.408;2023-04-08T12:17:48;15.63;;;11.75;;
44508;SDS011;30214;52.246;14.408;2023-04-08T12:20:15;17.30;;;12.10;;
44508;SDS011;30214;52.246;14.408;2023-04-08T12:22:43;16.58;;;12.00;;
44508;SDS011;30214;52.246;14.408;2023-04-08T12:25:11;16.58;;;12.00;;
44508;SDS011;30214;52.246;14.408;2023-04-08T12:27:38;15.23;;;11.65;;
44508;SDS011;30214;52.246;14.408;2023-04-08T12:30:06;14.98;;;11.50;;
44508;SDS011;30214;52.246;14.408;2023-04-08T12:32:36;15.25;;;11.48;;
44508;SDS011;30214;52.246;14.408;2023-04-08T12:35:08;15.25;;;11.30;;
44508;SDS011;30214;52.246;14.408;2023-04-08T12:37:35;15.68;;;12.32;;
44508;SDS011;30214;52.246;14.408;2023-04-08T12:40:02;15.10;;;11.15;;
44508;SDS011;30214;52.246;14.408;2023-04-08T12:42:30;15.23;;;11.90;;
44508;SDS011;30214;52.246;14.408;2023-04-08T12:44:59;16.73;;;12.27;;
44508;SDS011;30214;52.246;14.408;2023-04-08T12:47:26;17.45;;;12.02;;
44508;SDS011;30214;52.246;14.408;2023-04-08T12:49:53;15.73;;;11.85;;
44508;SDS011;30214;52.246;14.408;2023-04-08T12:52:21;16.45;;;11.95;;
44508;SDS011;30214;52.246;14.408;2023-04-08T12:54:48;17.63;;;13.60;;
44508;SDS011;30214;52.246;14.408;2023-04-08T12:57:15;16.13;;;12.52;;
44508;SDS011;30214;52.246;14.408;2023-04-08T12:59:42;14.88;;;11.65;;
44508;SDS011;30214;52.246;14.408;2023-04-08T13:02:09;16.25;;;11.65;;
44508;SDS011;30214;52.246;14.408;2023-04-08T13:04:36;15.48;;;12.13;;
44508;SDS011;30214;52.246;14.408;2023-04-08T13:07:03;17.23;;;12.10;;
44508;SDS011;30214;52.246;14.408;2023-04-08T13:09:33;14.90;;;11.27;;
44508;SDS011;30214;52.246;14.408;2023-04-08T13:12:00;18.10;;;11.75;;
44508;SDS011;30214;52.246;14.408;2023-04-08T13:14:27;16.90;;;11.75;;
44508;SDS011;30214;52.246;14.408;2023-04-08T13:16:54;15.70;;;11.73;;
44508;SDS011;30214;52.246;14.408;2023-04-08T13:19:22;16.85;;;12.48;;
44508;SDS011;30214;52.246;14.408;2023-04-08T13:21:49;17.08;;;12.40;;
44508;SDS011;30214;52.246;14.408;2023-04-08T13:24:16;16.38;;;12.15;;
44508;SDS011;30214;52.246;14.408;2023-04-08T13:26:44;16.50;;;12.05;;
44508;SDS011;30214;52.246;14.408;2023-04-08T13:29:11;19.45;;;13.15;;
44508;SDS011;30214;52.246;14.408;2023-04-08T13:31:38;18.00;;;12.93;;
44508;SDS011;30214;52.246;14.408;2023-04-08T13:34:05;18.70;;;13.43;;
44508;SDS011;30214;52.246;14.408;2023-04-08T13:36:32;18.50;;;13.77;;
44508;SDS011;30214;52.246;14.408;2023-04-08T13:38:59;19.52;;;13.90;;
44508;SDS011;30214;52.246;14.408;2023-04-08T13:41:26;15.65;;;12.60;;
44508;SDS011;30214;52.246;14.408;2023-04-08T13:43:55;18.35;;;13.77;;
44508;SDS011;30214;52.246;14.408;2023-04-08T13:46:22;17.25;;;13.20;;
44508;SDS011;30214;52.246;14.408;2023-04-08T13:48:49;18.80;;;13.73;;
44508;SDS011;30214;52.246;14.408;2023-04-08T13:51:16;21.48;;;15.20;;
44508;SDS011;30214;52.246;14.408;2023-04-08T13:53:43;19.17;;;14.50;;
44508;SDS011;30214;52.246;14.408;2023-04-08T13:56:11;20.65;;;14.73;;
44508;SDS011;30214;52.246;14.408;2023-04-08T13:58:38;20.20;;;14.38;;
44508;SDS011;30214;52.246;14.408;2023-04-08T14:01:07;21.13;;;15.20;;
44508;SDS011;30214;52.246;14.408;2023-04-08T14:03:34;20.33;;;15.35;;
44508;SDS011;30214;52.246;14.408;2023-04-08T14:06:01;21.17;;;16.05;;
44508;SDS011;30214;52.246;14.408;2023-04-08T14:08:29;22.20;;;16.38;;
44508;SDS011;30214;52.246;14.408;2023-04-08T14:10:56;22.33;;;16.65;;
44508;SDS011;30214;52.246;14.408;2023-04-08T14:13:23;25.40;;;16.73;;
44508;SDS011;30214;52.246;14.408;2023-04-08T14:15:50;21.92;;;16.45;;
44508;SDS011;30214;52.246;14.408;2023-04-08T14:18:21;23.83;;;16.60;;
44508;SDS011;30214;52.246;14.408;2023-04-08T14:20:48;21.95;;;16.05;;
44508;SDS011;30214;52.246;14.408;2023-04-08T14:23:15;22.02;;;16.45;;
44508;SDS011;30214;52.246;14.408;2023-04-08T14:25:42;22.35;;;15.82;;